sensor_id;sensor_type;location;lat;lon;timestamp;pressure;altitude;pressure_sealevel;temperature;humidity
74474;BME280;62922;-6.168;106.796;2023-03-20T00:00:46;100856.34;;;31.15;68.59
74474;BME280;62922;-6.168;106.796;2023-03-20T00:03:15;100856.66;;;31.13;68.63
74474;BME280;62922;-6.168;106.796;2023-03-20T00:05:41;100854.16;;;31.12;68.35
74474;BME280;62922;-6.168;106.796;2023-03-20T00:08:07;100863.13;;;31.14;68.77
74474;BME280;62922;-6.168;106.796;2023-03-20T00:10:36;100867.28;;;31.16;68.96
74474;BME280;62922;-6.168;106.796;2023-03-20T00:13:03;100870.09;;;31.16;68.99
74474;BME280;62922;-6.168;106.796;2023-03-20T00:15:36;100870.44;;;31.15;68.72
74474;BME280;62922;-6.168;106.796;2023-03-20T00:18:02;100874.88;;;31.16;68.14
74474;BME280;62922;-6.168;106.796;2023-03-20T00:20:28;100883.69;;;31.14;67.80
74474;BME280;62922;-6.168;106.796;2023-03-20T00:22:54;100880.88;;;31.14;68.35
74474;BME280;62922;-6.168;106.796;2023-03-20T00:25:24;100893.78;;;31.15;68.21
74474;BME280;62922;-6.168;106.796;2023-03-20T00:27:51;100895.28;;;31.13;68.22
74474;BME280;62922;-6.168;106.796;2023-03-20T00:30:18;100896.59;;;31.15;68.58
74474;BME280;62922;-6.168;106.796;2023-03-20T00:32:48;100903.56;;;31.18;68.25
74474;BME280;62922;-6.168;106.796;2023-03-20T00:35:23;100910.22;;;31.22;68.53
74474;BME280;62922;-6.168;106.796;2023-03-20T00:37:51;100912.69;;;31.23;68.54
74474;BME280;62922;-6.168;106.796;2023-03-20T00:40:18;100908.69;;;31.24;69.21
74474;BME280;62922;-6.168;106.796;2023-03-20T00:42:46;100922.00;;;31.24;68.58
74474;BME280;62922;-6.168;106.796;2023-03-20T00:45:14;100920.66;;;31.21;69.04
74474;BME280;62922;-6.168;106.796;2023-03-20T00:47:41;100922.63;;;31.21;68.42
74474;BME280;62922;-6.168;106.796;2023-03-20T00:50:19;100921.84;;;31.20;68.06
74474;BME280;62922;-6.168;106.796;2023-03-20T00:52:46;100922.97;;;31.19;68.34
74474;BME280;62922;-6.168;106.796;2023-03-20T00:55:12;100929.78;;;31.18;68.45
74474;BME280;62922;-6.168;106.796;2023-03-20T00:57:40;100927.78;;;31.19;68.37
74474;BME280;62922;-6.168;106.796;2023-03-20T01:02:37;100933.75;;;31.17;68.07
74474;BME280;62922;-6.168;106.796;2023-03-20T01:05:03;100945.03;;;31.17;68.05
74474;BME280;62922;-6.168;106.796;2023-03-20T01:07:30;100954.31;;;31.18;67.79
74474;BME280;62922;-6.168;106.796;2023-03-20T01:09:56;100951.00;;;31.16;67.95
74474;BME280;62922;-6.168;106.796;2023-03-20T01:12:22;100949.34;;;31.15;67.70
74474;BME280;62922;-6.168;106.796;2023-03-20T01:14:52;100962.63;;;31.14;67.27
74474;BME280;62922;-6.168;106.796;2023-03-20T01:17:22;100962.63;;;31.14;67.78
74474;BME280;62922;-6.168;106.796;2023-03-20T01:19:48;100969.09;;;31.15;67.55
74474;BME280;62922;-6.168;106.796;2023-03-20T01:22:14;100967.41;;;31.14;67.58
74474;BME280;62922;-6.168;106.796;2023-03-20T01:24:42;100972.25;;;31.13;67.27
74474;BME280;62922;-6.168;106.796;2023-03-20T01:27:14;100968.94;;;31.11;67.26
74474;BME280;62922;-6.168;106.796;2023-03-20T01:29:40;100968.09;;;31.11;66.91
74474;BME280;62922;-6.168;106.796;2023-03-20T01:32:10;100969.72;;;31.12;67.17
74474;BME280;62922;-6.168;106.796;2023-03-20T01:34:36;100976.03;;;31.09;67.20
74474;BME280;62922;-6.168;106.796;2023-03-20T01:37:02;100981.69;;;31.09;66.64
74474;BME280;62922;-6.168;106.796;2023-03-20T01:39:31;100980.50;;;31.10;66.48
74474;BME280;62922;-6.168;106.796;2023-03-20T01:41:58;100980.19;;;31.11;66.60
74474;BME280;62922;-6.168;106.796;2023-03-20T01:44:29;100983.81;;;31.12;67.04
74474;BME280;62922;-6.168;106.796;2023-03-20T01:46:58;100977.03;;;31.13;67.14
74474;BME280;62922;-6.168;106.796;2023-03-20T01:51:52;100979.53;;;31.14;66.95
74474;BME280;62922;-6.168;106.796;2023-03-20T01:56:48;100971.56;;;31.16;66.56
74474;BME280;62922;-6.168;106.796;2023-03-20T01:59:17;100970.75;;;31.16;66.69
74474;BME280;62922;-6.168;106.796;2023-03-20T02:01:49;100972.41;;;31.17;66.81
74474;BME280;62922;-6.168;106.796;2023-03-20T02:04:15;100966.44;;;31.18;66.92
74474;BME280;62922;-6.168;106.796;2023-03-20T02:06:42;100975.69;;;31.19;66.57
74474;BME280;62922;-6.168;106.796;2023-03-20T02:09:09;100970.06;;;31.19;66.62
74474;BME280;62922;-6.168;106.796;2023-03-20T02:11:36;100974.22;;;31.21;66.50
74474;BME280;62922;-6.168;106.796;2023-03-20T02:14:02;100968.59;;;31.21;66.60
74474;BME280;62922;-6.168;106.796;2023-03-20T02:16:28;100969.91;;;31.24;66.78
74474;BME280;62922;-6.168;106.796;2023-03-20T02:18:55;100969.91;;;31.24;66.67
74474;BME280;62922;-6.168;106.796;2023-03-20T02:24:03;100962.78;;;31.26;66.34
74474;BME280;62922;-6.168;106.796;2023-03-20T02:51:26;100978.72;;;31.39;65.39
74474;BME280;62922;-6.168;106.796;2023-03-20T02:56:51;100972.75;;;31.41;65.42
74474;BME280;62922;-6.168;106.796;2023-03-20T03:01:50;100974.91;;;31.44;64.79
74474;BME280;62922;-6.168;106.796;2023-03-20T03:04:21;100963.31;;;31.45;64.84
74474;BME280;62922;-6.168;106.796;2023-03-20T03:06:49;100962.13;;;31.46;65.27
74474;BME280;62922;-6.168;106.796;2023-03-20T03:09:22;100955.34;;;31.47;65.24
74474;BME280;62922;-6.168;106.796;2023-03-20T03:11:55;100969.44;;;31.47;65.13
74474;BME280;62922;-6.168;106.796;2023-03-20T03:14:34;100965.78;;;31.47;65.42
74474;BME280;62922;-6.168;106.796;2023-03-20T03:17:02;100958.31;;;31.51;65.08
74474;BME280;62922;-6.168;106.796;2023-03-20T03:19:30;100960.47;;;31.54;64.86
74474;BME280;62922;-6.168;106.796;2023-03-20T03:21:57;100961.31;;;31.54;64.72
74474;BME280;62922;-6.168;106.796;2023-03-20T03:24:33;100961.81;;;31.56;65.27
74474;BME280;62922;-6.168;106.796;2023-03-20T03:29:47;100959.66;;;31.53;65.27
74474;BME280;62922;-6.168;106.796;2023-03-20T03:32:19;100956.00;;;31.53;65.18
74474;BME280;62922;-6.168;106.796;2023-03-20T03:34:46;100966.44;;;31.52;65.41
74474;BME280;62922;-6.168;106.796;2023-03-20T03:37:19;100960.47;;;31.54;64.76
74474;BME280;62922;-6.168;106.796;2023-03-20T03:44:48;100954.00;;;31.62;64.90
74474;BME280;62922;-6.168;106.796;2023-03-20T03:47:18;100943.03;;;31.60;65.34
74474;BME280;62922;-6.168;106.796;2023-03-20T03:49:47;100940.03;;;31.66;65.60
74474;BME280;62922;-6.168;106.796;2023-03-20T03:52:15;100943.19;;;31.64;65.11
74474;BME280;62922;-6.168;106.796;2023-03-20T03:54:51;100946.53;;;31.66;65.46
74474;BME280;62922;-6.168;106.796;2023-03-20T03:57:20;100939.34;;;31.69;64.88
74474;BME280;62922;-6.168;106.796;2023-03-20T03:59:48;100936.53;;;31.69;65.70
74474;BME280;62922;-6.168;106.796;2023-03-20T04:02:15;100943.00;;;31.69;65.01
74474;BME280;62922;-6.168;106.796;2023-03-20T04:04:42;100942.19;;;31.69;64.96
74474;BME280;62922;-6.168;106.796;2023-03-20T04:07:12;100941.03;;;31.70;65.68
74474;BME280;62922;-6.168;106.796;2023-03-20T04:09:38;100935.38;;;31.70;65.35
74474;BME280;62922;-6.168;106.796;2023-03-20T04:12:04;100939.84;;;31.71;65.28
74474;BME280;62922;-6.168;106.796;2023-03-20T04:14:30;100937.88;;;31.71;65.40
74474;BME280;62922;-6.168;106.796;2023-03-20T04:16:56;100934.72;;;31.73;65.02
74474;BME280;62922;-6.168;106.796;2023-03-20T04:19:22;100929.06;;;31.73;65.27
74474;BME280;62922;-6.168;106.796;2023-03-20T04:21:48;100919.44;;;31.74;65.34
74474;BME280;62922;-6.168;106.796;2023-03-20T04:24:14;100921.09;;;31.75;65.45
74474;BME280;62922;-6.168;106.796;2023-03-20T04:26:40;100910.66;;;31.75;65.31
74474;BME280;62922;-6.168;106.796;2023-03-20T04:29:06;100905.00;;;31.75;65.44
74474;BME280;62922;-6.168;106.796;2023-03-20T04:31:32;100905.50;;;31.77;64.75
74474;BME280;62922;-6.168;106.796;2023-03-20T04:33:58;100901.84;;;31.77;64.78
74474;BME280;62922;-6.168;106.796;2023-03-20T04:36:24;100905.16;;;31.79;64.66
74474;BME280;62922;-6.168;106.796;2023-03-20T04:38:50;100894.34;;;31.81;64.62
74474;BME280;62922;-6.168;106.796;2023-03-20T04:41:15;100890.34;;;31.82;64.60
74474;BME280;62922;-6.168;106.796;2023-03-20T04:43:41;100882.72;;;31.82;64.61
74474;BME280;62922;-6.168;106.796;2023-03-20T04:46:07;100879.56;;;31.84;64.29
74474;BME280;62922;-6.168;106.796;2023-03-20T04:48:33;100875.59;;;31.85;64.34
74474;BME280;62922;-6.168;106.796;2023-03-20T04:50:59;100869.25;;;31.88;64.38
74474;BME280;62922;-6.168;106.796;2023-03-20T04:53:25;100860.47;;;31.89;64.33
74474;BME280;62922;-6.168;106.796;2023-03-20T04:55:51;100861.81;;;31.92;63.72
74474;BME280;62922;-6.168;106.796;2023-03-20T04:58:17;100860.63;;;31.93;63.64
74474;BME280;62922;-6.168;106.796;2023-03-20T05:00:43;100847.84;;;31.95;63.52
74474;BME280;62922;-6.168;106.796;2023-03-20T05:03:09;100842.69;;;31.97;63.95
74474;BME280;62922;-6.168;106.796;2023-03-20T05:05:36;100832.69;;;32.00;63.24
74474;BME280;62922;-6.168;106.796;2023-03-20T05:08:03;100832.84;;;32.03;63.18
74474;BME280;62922;-6.168;106.796;2023-03-20T05:10:29;100829.34;;;32.06;63.54
74474;BME280;62922;-6.168;106.796;2023-03-20T05:12:55;100820.19;;;32.09;63.63
74474;BME280;62922;-6.168;106.796;2023-03-20T05:15:21;100821.03;;;32.10;63.40
74474;BME280;62922;-6.168;106.796;2023-03-20T05:17:47;100816.22;;;32.10;63.08
74474;BME280;62922;-6.168;106.796;2023-03-20T05:20:13;100809.88;;;32.13;63.14
74474;BME280;62922;-6.168;106.796;2023-03-20T05:22:40;100801.06;;;32.15;62.49
74474;BME280;62922;-6.168;106.796;2023-03-20T05:25:06;100800.38;;;32.18;63.27
74474;BME280;62922;-6.168;106.796;2023-03-20T05:27:32;100798.03;;;32.20;63.33
74474;BME280;62922;-6.168;106.796;2023-03-20T05:29:58;100794.91;;;32.21;63.47
74474;BME280;62922;-6.168;106.796;2023-03-20T05:32:24;100796.53;;;32.22;63.42
74474;BME280;62922;-6.168;106.796;2023-03-20T05:34:49;100793.38;;;32.24;62.84
74474;BME280;62922;-6.168;106.796;2023-03-20T05:37:15;100793.00;;;32.25;62.57
74474;BME280;62922;-6.168;106.796;2023-03-20T05:39:41;100785.03;;;32.27;62.48
74474;BME280;62922;-6.168;106.796;2023-03-20T05:42:07;100775.41;;;32.28;62.71
74474;BME280;62922;-6.168;106.796;2023-03-20T05:44:33;100758.09;;;32.30;62.90
74474;BME280;62922;-6.168;106.796;2023-03-20T05:46:59;100752.13;;;32.31;62.21
74474;BME280;62922;-6.168;106.796;2023-03-20T05:49:25;100744.97;;;32.34;62.16
74474;BME280;62922;-6.168;106.796;2023-03-20T05:51:51;100732.13;;;32.36;62.59
74474;BME280;62922;-6.168;106.796;2023-03-20T05:54:17;100720.47;;;32.38;61.79
74474;BME280;62922;-6.168;106.796;2023-03-20T05:56:43;100723.78;;;32.40;62.04
74474;BME280;62922;-6.168;106.796;2023-03-20T05:59:09;100718.13;;;32.40;62.29
74474;BME280;62922;-6.168;106.796;2023-03-20T06:01:35;100715.00;;;32.41;61.68
74474;BME280;62922;-6.168;106.796;2023-03-20T06:04:04;100711.84;;;32.43;61.58
74474;BME280;62922;-6.168;106.796;2023-03-20T06:06:32;100705.50;;;32.46;61.75
74474;BME280;62922;-6.168;106.796;2023-03-20T06:09:04;100711.63;;;32.48;61.57
74474;BME280;62922;-6.168;106.796;2023-03-20T06:11:30;100711.63;;;32.48;62.01
74474;BME280;62922;-6.168;106.796;2023-03-20T06:13:56;100695.16;;;32.50;61.99
74474;BME280;62922;-6.168;106.796;2023-03-20T06:16:23;100694.81;;;32.51;61.71
74474;BME280;62922;-6.168;106.796;2023-03-20T06:18:51;100685.16;;;32.52;61.80
74474;BME280;62922;-6.168;106.796;2023-03-20T06:21:17;100692.47;;;32.53;61.82
74474;BME280;62922;-6.168;106.796;2023-03-20T06:23:43;100685.63;;;32.54;61.13
74474;BME280;62922;-6.168;106.796;2023-03-20T06:26:12;100683.63;;;32.55;61.54
74474;BME280;62922;-6.168;106.796;2023-03-20T06:28:38;100672.47;;;32.58;61.24
74474;BME280;62922;-6.168;106.796;2023-03-20T06:31:04;100665.66;;;32.60;61.35
74474;BME280;62922;-6.168;106.796;2023-03-20T06:33:30;100660.81;;;32.60;60.70
74474;BME280;62922;-6.168;106.796;2023-03-20T06:35:55;100649.50;;;32.60;60.61
74474;BME280;62922;-6.168;106.796;2023-03-20T06:38:22;100651.66;;;32.63;61.14
74474;BME280;62922;-6.168;106.796;2023-03-20T06:40:47;100648.84;;;32.63;61.20
74474;BME280;62922;-6.168;106.796;2023-03-20T06:43:13;100643.97;;;32.64;60.80
74474;BME280;62922;-6.168;106.796;2023-03-20T06:45:39;100638.81;;;32.66;61.16
74474;BME280;62922;-6.168;106.796;2023-03-20T06:48:06;100623.53;;;32.67;60.92
74474;BME280;62922;-6.168;106.796;2023-03-20T06:50:32;100622.81;;;32.70;61.09
74474;BME280;62922;-6.168;106.796;2023-03-20T06:52:58;100621.31;;;32.72;61.38
74474;BME280;62922;-6.168;106.796;2023-03-20T06:55:24;100617.66;;;32.72;60.67
74474;BME280;62922;-6.168;106.796;2023-03-20T06:57:50;100620.94;;;32.74;60.62
74474;BME280;62922;-6.168;106.796;2023-03-20T07:00:16;100618.59;;;32.76;60.77
74474;BME280;62922;-6.168;106.796;2023-03-20T07:02:44;100620.72;;;32.79;61.15
74474;BME280;62922;-6.168;106.796;2023-03-20T07:05:10;100609.41;;;32.79;61.03
74474;BME280;62922;-6.168;106.796;2023-03-20T07:07:36;100597.75;;;32.80;60.64
74474;BME280;62922;-6.168;106.796;2023-03-20T07:10:02;100613.06;;;32.79;60.51
74474;BME280;62922;-6.168;106.796;2023-03-20T07:12:29;100606.22;;;32.80;60.80
74474;BME280;62922;-6.168;106.796;2023-03-20T07:14:55;100589.63;;;32.79;61.20
74474;BME280;62922;-6.168;106.796;2023-03-20T07:17:21;100593.66;;;32.78;60.72
74474;BME280;62922;-6.168;106.796;2023-03-20T07:19:47;100608.13;;;32.76;61.19
74474;BME280;62922;-6.168;106.796;2023-03-20T07:22:24;100618.38;;;32.81;60.68
74474;BME280;62922;-6.168;106.796;2023-03-20T07:24:50;100618.13;;;32.86;61.01
74474;BME280;62922;-6.168;106.796;2023-03-20T07:27:16;100621.91;;;32.90;61.30
74474;BME280;62922;-6.168;106.796;2023-03-20T07:29:42;100611.91;;;32.92;60.95
74474;BME280;62922;-6.168;106.796;2023-03-20T07:32:08;100607.41;;;32.91;61.16
74474;BME280;62922;-6.168;106.796;2023-03-20T07:34:34;100604.59;;;32.91;61.29
74474;BME280;62922;-6.168;106.796;2023-03-20T07:37:00;100611.22;;;32.95;61.33
74474;BME280;62922;-6.168;106.796;2023-03-20T07:39:26;100599.09;;;32.95;60.59
74474;BME280;62922;-6.168;106.796;2023-03-20T07:41:55;100603.44;;;32.92;60.79
74474;BME280;62922;-6.168;106.796;2023-03-20T07:44:23;100597.47;;;32.94;61.02
74474;BME280;62922;-6.168;106.796;2023-03-20T07:46:49;100600.75;;;32.96;60.29
74474;BME280;62922;-6.168;106.796;2023-03-20T07:49:15;100611.34;;;32.99;60.93
74474;BME280;62922;-6.168;106.796;2023-03-20T07:51:44;100626.31;;;32.99;60.80
74474;BME280;62922;-6.168;106.796;2023-03-20T07:54:10;100646.09;;;32.99;60.26
74474;BME280;62922;-6.168;106.796;2023-03-20T07:56:36;100635.28;;;33.01;60.18
74474;BME280;62922;-6.168;106.796;2023-03-20T07:59:02;100632.09;;;33.03;60.29
74474;BME280;62922;-6.168;106.796;2023-03-20T08:01:28;100631.72;;;33.04;59.77
74474;BME280;62922;-6.168;106.796;2023-03-20T08:03:54;100632.44;;;33.01;59.11
74474;BME280;62922;-6.168;106.796;2023-03-20T08:06:21;100645.75;;;33.01;58.66
74474;BME280;62922;-6.168;106.796;2023-03-20T08:08:47;100640.09;;;33.01;58.72
74474;BME280;62922;-6.168;106.796;2023-03-20T08:11:16;100644.16;;;32.91;58.54
74474;BME280;62922;-6.168;106.796;2023-03-20T08:13:42;100644.03;;;32.88;58.89
74474;BME280;62922;-6.168;106.796;2023-03-20T08:16:08;100641.94;;;32.85;58.50
74474;BME280;62922;-6.168;106.796;2023-03-20T08:18:34;100645.91;;;32.84;57.67
74474;BME280;62922;-6.168;106.796;2023-03-20T08:21:00;100647.59;;;32.85;57.16
74474;BME280;62922;-6.168;106.796;2023-03-20T08:23:26;100652.88;;;32.86;57.62
74474;BME280;62922;-6.168;106.796;2023-03-20T08:25:52;100650.88;;;32.87;57.60
74474;BME280;62922;-6.168;106.796;2023-03-20T08:28:25;100657.81;;;32.89;57.23
74474;BME280;62922;-6.168;106.796;2023-03-20T08:30:51;100649.81;;;32.91;57.70
74474;BME280;62922;-6.168;106.796;2023-03-20T08:33:17;100647.00;;;32.91;57.54
74474;BME280;62922;-6.168;106.796;2023-03-20T08:35:43;100657.97;;;32.93;57.22
74474;BME280;62922;-6.168;106.796;2023-03-20T08:38:19;100663.31;;;32.94;56.29
74474;BME280;62922;-6.168;106.796;2023-03-20T08:40:45;100673.78;;;32.94;56.50
74474;BME280;62922;-6.168;106.796;2023-03-20T08:43:10;100673.78;;;32.94;56.27
74474;BME280;62922;-6.168;106.796;2023-03-20T08:45:36;100674.63;;;32.94;56.41
74474;BME280;62922;-6.168;106.796;2023-03-20T08:48:02;100679.09;;;32.95;55.84
74474;BME280;62922;-6.168;106.796;2023-03-20T08:50:28;100671.78;;;32.94;56.32
74474;BME280;62922;-6.168;106.796;2023-03-20T08:52:54;100685.56;;;32.96;56.47
74474;BME280;62922;-6.168;106.796;2023-03-20T08:55:20;100696.53;;;32.97;56.45
74474;BME280;62922;-6.168;106.796;2023-03-20T08:57:46;100706.19;;;32.96;56.88
74474;BME280;62922;-6.168;106.796;2023-03-20T09:00:12;100706.66;;;32.98;56.76
74474;BME280;62922;-6.168;106.796;2023-03-20T09:02:40;100722.78;;;32.98;56.32
74474;BME280;62922;-6.168;106.796;2023-03-20T09:05:06;100714.31;;;32.98;56.11
74474;BME280;62922;-6.168;106.796;2023-03-20T09:07:32;100719.97;;;32.98;56.69
74474;BME280;62922;-6.168;106.796;2023-03-20T09:09:57;100725.00;;;32.92;57.15
74474;BME280;62922;-6.168;106.796;2023-03-20T09:12:23;100729.81;;;32.92;57.29
74474;BME280;62922;-6.168;106.796;2023-03-20T09:14:49;100734.16;;;32.89;57.31
74474;BME280;62922;-6.168;106.796;2023-03-20T09:17:15;100742.97;;;32.88;57.74
74474;BME280;62922;-6.168;106.796;2023-03-20T09:19:41;100740.16;;;32.88;58.76
74474;BME280;62922;-6.168;106.796;2023-03-20T09:22:13;100738.50;;;32.87;58.24
74474;BME280;62922;-6.168;106.796;2023-03-20T09:24:42;100732.03;;;32.86;58.07
74474;BME280;62922;-6.168;106.796;2023-03-20T09:27:08;100725.53;;;32.86;58.23
74474;BME280;62922;-6.168;106.796;2023-03-20T09:29:34;100717.06;;;32.86;58.55
74474;BME280;62922;-6.168;106.796;2023-03-20T09:32:00;100719.09;;;32.85;59.73
74474;BME280;62922;-6.168;106.796;2023-03-20T09:34:28;100713.44;;;32.85;59.86
74474;BME280;62922;-6.168;106.796;2023-03-20T09:36:55;100721.06;;;32.85;60.27
74474;BME280;62922;-6.168;106.796;2023-03-20T09:39:21;100714.59;;;32.84;60.38
74474;BME280;62922;-6.168;106.796;2023-03-20T09:41:47;100720.25;;;32.84;60.39
74474;BME280;62922;-6.168;106.796;2023-03-20T09:44:17;100717.41;;;32.84;60.37
74474;BME280;62922;-6.168;106.796;2023-03-20T09:51:52;100740.84;;;32.85;60.82
74474;BME280;62922;-6.168;106.796;2023-03-20T09:54:21;100730.38;;;32.85;60.65
74474;BME280;62922;-6.168;106.796;2023-03-20T09:56:49;100734.03;;;32.86;60.17
74474;BME280;62922;-6.168;106.796;2023-03-20T09:59:16;100734.84;;;32.86;60.24
74474;BME280;62922;-6.168;106.796;2023-03-20T10:01:54;100726.38;;;32.86;60.11
74474;BME280;62922;-6.168;106.796;2023-03-20T10:04:22;100720.72;;;32.86;59.92
74474;BME280;62922;-6.168;106.796;2023-03-20T10:06:50;100740.16;;;32.88;60.97
74474;BME280;62922;-6.168;106.796;2023-03-20T10:09:17;100752.66;;;32.87;60.60
74474;BME280;62922;-6.168;106.796;2023-03-20T10:22:16;100795.72;;;32.84;58.77
74474;BME280;62922;-6.168;106.796;2023-03-20T10:24:48;100808.69;;;32.85;59.38
74474;BME280;62922;-6.168;106.796;2023-03-20T10:27:21;100816.00;;;32.86;59.08
74474;BME280;62922;-6.168;106.796;2023-03-20T10:32:33;100819.53;;;32.83;59.21
74474;BME280;62922;-6.168;106.796;2023-03-20T10:35:03;100806.56;;;32.82;59.53
74474;BME280;62922;-6.168;106.796;2023-03-20T10:42:40;100786.31;;;32.80;61.03
74474;BME280;62922;-6.168;106.796;2023-03-20T10:45:15;100791.97;;;32.80;60.55
74474;BME280;62922;-6.168;106.796;2023-03-20T10:47:47;100806.09;;;32.80;60.64
74474;BME280;62922;-6.168;106.796;2023-03-20T10:50:17;100810.06;;;32.79;60.71
74474;BME280;62922;-6.168;106.796;2023-03-20T10:52:44;100821.38;;;32.79;60.59
74474;BME280;62922;-6.168;106.796;2023-03-20T10:55:15;100825.38;;;32.78;61.14
74474;BME280;62922;-6.168;106.796;2023-03-20T10:57:45;100842.00;;;32.79;60.61
74474;BME280;62922;-6.168;106.796;2023-03-20T11:00:23;100840.31;;;32.78;61.16
74474;BME280;62922;-6.168;106.796;2023-03-20T11:02:51;100838.34;;;32.79;60.71
74474;BME280;62922;-6.168;106.796;2023-03-20T11:08:04;100844.81;;;32.79;60.90
74474;BME280;62922;-6.168;106.796;2023-03-20T11:10:33;100852.47;;;32.79;60.63
74474;BME280;62922;-6.168;106.796;2023-03-20T11:13:02;100860.09;;;32.78;61.04
74474;BME280;62922;-6.168;106.796;2023-03-20T11:15:38;100864.97;;;32.78;60.53
74474;BME280;62922;-6.168;106.796;2023-03-20T11:18:04;100860.47;;;32.77;60.70
74474;BME280;62922;-6.168;106.796;2023-03-20T11:20:57;100877.41;;;32.77;61.18
74474;BME280;62922;-6.168;106.796;2023-03-20T11:23:19;100887.56;;;32.78;60.52
74474;BME280;62922;-6.168;106.796;2023-03-20T11:28:18;100908.16;;;32.78;61.24
74474;BME280;62922;-6.168;106.796;2023-03-20T11:30:44;100918.66;;;32.78;61.48
74474;BME280;62922;-6.168;106.796;2023-03-20T11:33:11;100921.84;;;32.76;61.41
74474;BME280;62922;-6.168;106.796;2023-03-20T11:35:43;100921.00;;;32.76;61.08
74474;BME280;62922;-6.168;106.796;2023-03-20T11:38:23;100929.00;;;32.74;61.70
74474;BME280;62922;-6.168;106.796;2023-03-20T11:40:49;100934.97;;;32.72;61.71
74474;BME280;62922;-6.168;106.796;2023-03-20T11:43:20;100935.34;;;32.71;61.29
74474;BME280;62922;-6.168;106.796;2023-03-20T11:45:49;100932.81;;;32.69;61.27
74474;BME280;62922;-6.168;106.796;2023-03-20T11:48:16;100932.81;;;32.69;61.16
74474;BME280;62922;-6.168;106.796;2023-03-20T11:50:50;100922.00;;;32.71;61.29
74474;BME280;62922;-6.168;106.796;2023-03-20T11:58:32;100941.31;;;32.69;60.80
74474;BME280;62922;-6.168;106.796;2023-03-20T12:01:00;100932.69;;;32.66;60.55
74474;BME280;62922;-6.168;106.796;2023-03-20T12:06:04;100939.53;;;32.65;60.35
74474;BME280;62922;-6.168;106.796;2023-03-20T12:08:30;100946.31;;;32.64;60.97
74474;BME280;62922;-6.168;106.796;2023-03-20T12:10:58;100950.34;;;32.63;60.46
74474;BME280;62922;-6.168;106.796;2023-03-20T12:13:27;100951.84;;;32.60;60.30
74474;BME280;62922;-6.168;106.796;2023-03-20T12:15:56;100955.00;;;32.58;60.22
74474;BME280;62922;-6.168;106.796;2023-03-20T12:18:25;100963.97;;;32.61;60.13
74474;BME280;62922;-6.168;106.796;2023-03-20T12:23:30;100973.94;;;32.58;60.64
74474;BME280;62922;-6.168;106.796;2023-03-20T12:33:39;100998.56;;;32.58;60.34
74474;BME280;62922;-6.168;106.796;2023-03-20T12:36:15;100984.63;;;32.52;59.77
74474;BME280;62922;-6.168;106.796;2023-03-20T12:38:42;100991.09;;;32.53;59.85
74474;BME280;62922;-6.168;106.796;2023-03-20T12:41:34;100996.25;;;32.51;60.25
74474;BME280;62922;-6.168;106.796;2023-03-20T12:51:58;100980.84;;;32.48;59.92
74474;BME280;62922;-6.168;106.796;2023-03-20T12:59:45;100981.75;;;32.61;60.72
74474;BME280;62922;-6.168;106.796;2023-03-20T13:07:43;100966.66;;;32.57;60.78
74474;BME280;62922;-6.168;106.796;2023-03-20T13:12:45;100956.84;;;32.54;60.97
74474;BME280;62922;-6.168;106.796;2023-03-20T13:20:30;100948.56;;;32.49;61.87
74474;BME280;62922;-6.168;106.796;2023-03-20T13:27:54;100947.44;;;32.50;61.74
74474;BME280;62922;-6.168;106.796;2023-03-20T13:30:36;100949.91;;;32.52;62.32
74474;BME280;62922;-6.168;106.796;2023-03-20T13:36:07;100951.06;;;32.51;61.45
74474;BME280;62922;-6.168;106.796;2023-03-20T13:38:32;100963.53;;;32.50;60.53
74474;BME280;62922;-6.168;106.796;2023-03-20T13:41:01;100959.38;;;32.47;60.40
74474;BME280;62922;-6.168;106.796;2023-03-20T13:43:30;100970.19;;;32.45;60.79
74474;BME280;62922;-6.168;106.796;2023-03-20T13:46:09;100968.91;;;32.43;60.74
74474;BME280;62922;-6.168;106.796;2023-03-20T13:48:39;100978.19;;;32.43;60.35
74474;BME280;62922;-6.168;106.796;2023-03-20T13:58:59;100975.34;;;32.43;60.44
74474;BME280;62922;-6.168;106.796;2023-03-20T14:03:54;100987.66;;;32.39;60.61
74474;BME280;62922;-6.168;106.796;2023-03-20T14:08:55;100985.84;;;32.34;60.59
74474;BME280;62922;-6.168;106.796;2023-03-20T14:13:53;100988.66;;;32.34;60.22
74474;BME280;62922;-6.168;106.796;2023-03-20T14:16:19;100986.53;;;32.31;60.24
74474;BME280;62922;-6.168;106.796;2023-03-20T14:18:47;100990.53;;;32.30;60.65
74474;BME280;62922;-6.168;106.796;2023-03-20T14:21:17;100991.34;;;32.31;60.16
74474;BME280;62922;-6.168;106.796;2023-03-20T14:23:44;100986.03;;;32.29;60.25
74474;BME280;62922;-6.168;106.796;2023-03-20T14:26:25;100992.84;;;32.28;60.06
74474;BME280;62922;-6.168;106.796;2023-03-20T14:31:38;101000.84;;;32.26;60.47
74474;BME280;62922;-6.168;106.796;2023-03-20T14:36:55;101004.81;;;32.25;60.52
74474;BME280;62922;-6.168;106.796;2023-03-20T14:39:20;101007.97;;;32.24;60.39
74474;BME280;62922;-6.168;106.796;2023-03-20T14:42:04;100999.00;;;32.22;59.85
74474;BME280;62922;-6.168;106.796;2023-03-20T14:47:15;100998.53;;;32.20;59.99
74474;BME280;62922;-6.168;106.796;2023-03-20T14:49:47;100994.88;;;32.19;60.45
74474;BME280;62922;-6.168;106.796;2023-03-20T14:54:41;100991.56;;;32.17;60.03
74474;BME280;62922;-6.168;106.796;2023-03-20T14:57:08;100997.56;;;32.16;60.08
74474;BME280;62922;-6.168;106.796;2023-03-20T14:59:34;101002.38;;;32.15;60.69
74474;BME280;62922;-6.168;106.796;2023-03-20T15:02:01;101001.88;;;32.13;60.64
74474;BME280;62922;-6.168;106.796;2023-03-20T15:09:21;101003.03;;;32.12;60.39
74474;BME280;62922;-6.168;106.796;2023-03-20T15:11:48;101021.97;;;32.12;59.91
74474;BME280;62922;-6.168;106.796;2023-03-20T15:14:17;101022.31;;;32.10;60.43